Aérodrome :
LOGIN :

S'inscrire | Disclaimer

   EN    FR    IT 

 










Légende :    VFR   VFR Marginal   IFR   IFR Intensif   IFR Très Intensif
Visi : 
Plafond : 
>= 8 km
>= 3000ft
5 à 8 km
1000 à 3000 ft
1500m à 5 km
500 à 1000 ft
800 à 1500m
200 à 500 ft
< 800m
< 200 ft
Symboles :   Orages  Brouillard  Fortes neiges  Fortes précipitations  Vent > 20 kt
SIGMETs :   Divers  Orages  Givrage  Turbulence  Onde Orograph.  Cendres Volcan.






- Altitude de l'aérodrome : 160 ft
- Code IATA : FMO


EDDG - Münster Osnabrück Int.

DERNIER METAR :
  • 021150Z 14006KT 050V200 CAVOK 24/08 Q1021 NOSIG

METARs EXPIRÉS :
  • 021120Z 19009KT 130V240 CAVOK 24/08 Q1021 NOSIG
  • 021050Z 18009KT 140V220 CAVOK 23/09 Q1022 NOSIG
  • 021020Z 20007KT 100V240 CAVOK 22/08 Q1022 NOSIG
  • 020950Z 16009KT 120V220 CAVOK 23/08 Q1022 NOSIG
  • 020920Z 19007KT 110V260 9999 SCT047 22/09 Q1022 NOSIG

TAF TAF EDDG
Valide du 02 à 12h jusqu'au 03 à 12h UTC


021100Z 0212/0312 21009KT CAVOK
BECMG 0216/0219 VRB02KT
BECMG 0305/0308 24005KT
BECMG 0309/0312 25010KT



MET'MAP, la Météo Aéronautique d'un coup d'oeil ! - Copyright ORBIFLY Décembre 2007 - Disclaimer

ORBIFLY MET'MAP TEAM :

Programmation & Développement : Alexandra Zaïnal
Sur une idée originale de : Baudouin d'Aumeries
Soutien technique & logistique : Manuel Goepfert
Assistance : Marc-Olivier Méhu




SOURCES & CREDITS :

   NOAA